About Axiom Aviation

This author has not yet filled in any details.
So far Axiom Aviation has created 10 blog entries.

Why we love flying in the winter!

2017-01-16T18:35:58+00:00 October 27th, 2016|

Current METAR

KOGD 211953Z 26005KT 10SM CLR 33/07 A3007 RMK AO2 SLP110 T03330072